< < Back
Terminal Aerodrome Forecast


Current Version              Previous Versions:   1  2  3  4  5  6  7  8  9  

Terminal Aerodrome Forecast

387
FTUS42 KGSP 042359 AAA
TAFHKY
TAF AMD
KHKY 042359Z 0500/0524 20010G19KT P6SM SCT060
     FM050300 22007KT P6SM BKN060
     FM050700 25008KT 5SM BR OVC008
     FM050900 30006KT 4SM -RA BR OVC008
     FM051400 01006KT 2SM -RA BR OVC008
     FM052200 01007KT P6SM OVC008=



Latest METAR

456
SAUS70 KWBC 051600 RRD
MTRHKY
METAR KHKY 051553Z 07009G23KT 1 1/4SM +RA BR BKN007 OVC012 08/07 A2988
RMK AO2 VIS 1V2 RAB08 SLP104 P0016 T00830072


USA.gov is the U.S. government's official web portal to all federal, state and local government web resources and services.